Hindman, Kentucky
Current Conditions -  °F | °C
As of 12:53 AM on Monday 26 Jan 2015 (Local Time) from KJKL Reporting Station
Overcast Overcast  
Wind Chill: 41°   Ceiling: 3500
Heat Index: 41°   Visibility: 10mi
Dew Point: 38°   Wind: 0mph
Humidity: 89%   Direction: NA
Pressure: 29.62"   Gusts: NA
Location:  37.34°N, 82.98°W
Report Text: KJKL 260553Z AUTO 00000KT 10SM FEW027 OVC035 05/03 A2962 RMK AO2 RAE23 SLP032 P0001 60004 T00500033 10078 20050 58012
Loading
Personal Weather Stations






























Interactive Weather Map New forecast layout! Learn more

10-Day Weather Forecast

Advertisements
Track Severe Weather on mobile